Time;durP1;ratioP1;P1;durP2;ratioP2;P2;SDS_P1;SDS_P2;PMS_P1;PMS_P2;Temp;Humidity;BMP_temperature;BMP_pressure;BME280_temperature;BME280_humidity;BME280_pressure;Samples;Min_cycle;Max_cycle;Signal;HPM_P1;HPM_P2
2022/10/20 00:01:05;;;;;;;;;;;19.80;70.60;;;;;;4494382;31;19969;-78
2022/10/20 00:03:31;;;;;;;;;;;19.80;70.70;;;;;;4494178;31;20075;-78
2022/10/20 00:06:09;;;;;;;;;;;19.80;70.70;;;;;;4494620;31;20002;-78
2022/10/20 00:08:37;;;;;;;;;;;19.80;70.70;;;;;;4494062;31;19982;-78
2022/10/20 00:11:02;;;;;;;;;;;19.80;70.60;;;;;;4494124;31;20383;-78
2022/10/20 00:13:28;;;;;;;;;;;19.80;70.60;;;;;;4494004;31;20062;-78
2022/10/20 00:15:55;;;;;;;;;;;19.80;70.70;;;;;;4494066;31;20044;-78
2022/10/20 00:18:22;;;;;;;;;;;19.70;70.60;;;;;;4493843;31;20318;-78
2022/10/20 00:20:47;;;;;;;;;;;19.70;70.60;;;;;;4493406;31;20075;-78
2022/10/20 00:23:13;;;;;;;;;;;19.70;70.60;;;;;;4493995;31;20099;-78
2022/10/20 00:25:39;;;;;;;;;;;19.70;70.60;;;;;;4493448;31;20154;-78
2022/10/20 00:28:05;;;;;;;;;;;19.70;70.60;;;;;;4493473;31;20158;-78
2022/10/20 00:30:32;;;;;;;;;;;19.70;70.60;;;;;;4493025;31;20326;-78
2022/10/20 00:32:58;;;;;;;;;;;19.70;70.60;;;;;;4493797;31;20150;-79
2022/10/20 00:35:23;;;;;;;;;;;19.70;70.50;;;;;;4493953;31;20068;-78
2022/10/20 00:37:49;;;;;;;;;;;19.70;70.40;;;;;;4493355;31;19957;-78
2022/10/20 00:40:15;;;;;;;;;;;19.60;70.40;;;;;;4492435;31;20310;-79
2022/10/20 00:42:44;;;;;;;;;;;19.70;70.50;;;;;;4493369;31;19996;-79
2022/10/20 00:45:17;;;;;;;;;;;19.60;70.40;;;;;;4493511;31;19985;-78
2022/10/20 00:47:45;;;;;;;;;;;19.60;70.40;;;;;;4493570;31;19981;-78
2022/10/20 00:50:13;;;;;;;;;;;19.60;70.40;;;;;;4493697;31;19993;-79
2022/10/20 00:52:40;;;;;;;;;;;19.60;70.40;;;;;;4493512;31;20520;-78
2022/10/20 00:55:07;;;;;;;;;;;19.60;70.40;;;;;;4492186;31;19981;-79
2022/10/20 00:57:32;;;;;;;;;;;19.60;70.40;;;;;;4492377;31;20039;-78
2022/10/20 00:59:58;;;;;;;;;;;19.60;70.30;;;;;;4493461;31;20131;-78
2022/10/20 01:02:24;;;;;;;;;;;19.60;70.30;;;;;;4493035;31;20104;-78
2022/10/20 01:04:50;;;;;;;;;;;19.60;70.40;;;;;;4493246;31;20149;-78
2022/10/20 01:07:16;;;;;;;;;;;19.60;70.30;;;;;;4493208;31;19958;-78
2022/10/20 01:09:43;;;;;;;;;;;19.60;70.30;;;;;;4493161;31;20062;-78
2022/10/20 01:12:09;;;;;;;;;;;19.60;70.30;;;;;;4493492;31;20032;-78
2022/10/20 01:14:50;;;;;;;;;;;19.60;70.40;;;;;;4493768;31;19982;-78
2022/10/20 01:17:15;;;;;;;;;;;19.50;70.30;;;;;;4493500;31;20465;-79
2022/10/20 01:20:01;;;;;;;;;;;19.50;70.30;;;;;;4492589;31;20524;-78
2022/10/20 01:22:47;;;;;;;;;;;19.50;70.20;;;;;;4487887;31;20287;-78
2022/10/20 01:25:16;;;;;;;;;;;19.50;70.30;;;;;;4476204;31;20117;-78
2022/10/20 01:27:43;;;;;;;;;;;19.50;70.30;;;;;;4493515;31;19988;-78
2022/10/20 01:30:22;;;;;;;;;;;19.50;70.30;;;;;;4492661;31;20037;-78
2022/10/20 01:32:54;;;;;;;;;;;19.50;70.20;;;;;;4493804;31;20114;-78
2022/10/20 01:35:19;;;;;;;;;;;19.50;70.40;;;;;;4494079;31;20044;-78
2022/10/20 01:38:04;;;;;;;;;;;19.40;70.20;;;;;;4493325;31;20346;-78
2022/10/20 01:40:42;;;;;;;;;;;19.40;70.30;;;;;;4493580;31;19993;-78
2022/10/20 01:43:10;;;;;;;;;;;19.40;70.30;;;;;;4491756;31;20017;-78
2022/10/20 01:45:37;;;;;;;;;;;19.40;70.20;;;;;;4493543;31;19980;-78
2022/10/20 01:48:08;;;;;;;;;;;19.40;70.20;;;;;;4493816;31;20063;-78
2022/10/20 01:50:34;;;;;;;;;;;19.40;70.20;;;;;;4493590;31;20342;-78
2022/10/20 01:53:00;;;;;;;;;;;19.40;70.20;;;;;;4493460;31;19978;-78
2022/10/20 01:55:26;;;;;;;;;;;19.40;70.20;;;;;;4493181;31;19977;-78
2022/10/20 01:57:52;;;;;;;;;;;19.40;70.20;;;;;;4493042;31;20468;-76
2022/10/20 02:00:18;;;;;;;;;;;19.40;70.20;;;;;;4493617;31;20020;-78
2022/10/20 02:02:54;;;;;;;;;;;19.30;70.20;;;;;;4494215;31;20013;-78
2022/10/20 02:05:29;;;;;;;;;;;19.30;70.20;;;;;;4493447;31;19989;-78
2022/10/20 02:08:08;;;;;;;;;;;19.40;70.20;;;;;;4492427;31;19981;-78
2022/10/20 02:10:42;;;;;;;;;;;19.30;70.10;;;;;;4493125;32;20405;-78
2022/10/20 02:13:09;;;;;;;;;;;19.30;70.10;;;;;;4492928;32;20001;-78
2022/10/20 02:15:38;;;;;;;;;;;19.30;70.20;;;;;;4493039;32;19981;-79
2022/10/20 02:18:05;;;;;;;;;;;19.30;70.20;;;;;;4492457;32;19966;-78
2022/10/20 02:20:31;;;;;;;;;;;19.30;70.20;;;;;;4492943;32;20058;-78
2022/10/20 02:22:57;;;;;;;;;;;19.30;70.20;;;;;;4492946;32;19981;-78
2022/10/20 02:25:24;;;;;;;;;;;19.30;70.20;;;;;;4492994;32;20433;-78
2022/10/20 02:27:50;;;;;;;;;;;19.20;70.10;;;;;;4492943;32;19974;-78
2022/10/20 02:30:17;;;;;;;;;;;19.30;70.10;;;;;;4492625;32;19997;-78
2022/10/20 02:32:43;;;;;;;;;;;19.30;70.20;;;;;;4492394;32;19974;-79
2022/10/20 02:35:13;;;;;;;;;;;19.30;70.20;;;;;;4492624;32;19996;-78
2022/10/20 02:37:39;;;;;;;;;;;19.20;70.10;;;;;;4492717;32;20378;-78
2022/10/20 02:40:04;;;;;;;;;;;19.20;70.10;;;;;;4492915;32;19966;-78
2022/10/20 02:42:30;;;;;;;;;;;19.20;70.10;;;;;;4492659;32;20017;-78
2022/10/20 02:44:56;;;;;;;;;;;19.20;70.10;;;;;;4492303;32;19961;-78
2022/10/20 02:47:22;;;;;;;;;;;19.20;70.10;;;;;;4492480;32;20076;-78
2022/10/20 02:49:47;;;;;;;;;;;19.20;70.10;;;;;;4492415;32;19991;-78
2022/10/20 02:52:13;;;;;;;;;;;19.20;70.10;;;;;;4492547;32;20308;-78
2022/10/20 02:54:39;;;;;;;;;;;19.20;70.00;;;;;;4495099;31;20425;-78
2022/10/20 02:57:05;;;;;;;;;;;19.20;70.00;;;;;;4495173;31;19974;-78
2022/10/20 02:59:30;;;;;;;;;;;19.20;69.90;;;;;;4495628;31;19962;-78
2022/10/20 03:01:56;;;;;;;;;;;19.20;70.00;;;;;;4495633;31;20287;-78
2022/10/20 03:04:21;;;;;;;;;;;19.10;69.80;;;;;;4495340;31;19977;-78
2022/10/20 03:06:47;;;;;;;;;;;19.10;69.90;;;;;;4494952;31;19965;-78
2022/10/20 03:09:13;;;;;;;;;;;19.10;69.90;;;;;;4495108;31;20162;-78
2022/10/20 03:11:39;;;;;;;;;;;19.10;69.80;;;;;;4495226;31;19996;-78
2022/10/20 03:14:05;;;;;;;;;;;19.10;69.80;;;;;;4495206;31;19970;-78
2022/10/20 03:16:31;;;;;;;;;;;19.10;69.80;;;;;;4495281;31;20015;-78
2022/10/20 03:18:56;;;;;;;;;;;19.10;69.80;;;;;;4495144;31;19970;-78
2022/10/20 03:21:22;;;;;;;;;;;19.10;69.70;;;;;;4495445;31;20050;-78
2022/10/20 03:23:48;;;;;;;;;;;19.10;69.70;;;;;;4494814;31;20055;-78
2022/10/20 03:26:13;;;;;;;;;;;19.10;69.70;;;;;;4495403;31;19981;-78
2022/10/20 03:28:39;;;;;;;;;;;19.10;69.60;;;;;;4494954;31;20459;-78
2022/10/20 03:31:06;;;;;;;;;;;19.10;69.70;;;;;;4494875;31;19985;-78
2022/10/20 03:33:32;;;;;;;;;;;19.00;69.50;;;;;;4494691;31;19962;-78
2022/10/20 03:35:58;;;;;;;;;;;19.00;69.50;;;;;;4495015;31;20119;-78
2022/10/20 03:38:24;;;;;;;;;;;19.00;69.50;;;;;;4493597;31;20284;-78
2022/10/20 03:40:50;;;;;;;;;;;19.00;69.50;;;;;;4494874;31;20031;-78
2022/10/20 03:43:15;;;;;;;;;;;19.00;69.50;;;;;;4494431;31;19988;-78
2022/10/20 03:45:41;;;;;;;;;;;19.00;69.50;;;;;;4493792;31;20025;-78
2022/10/20 03:48:07;;;;;;;;;;;19.00;69.50;;;;;;4495030;31;20107;-78
2022/10/20 03:50:33;;;;;;;;;;;19.00;69.40;;;;;;4494738;31;20008;-78
2022/10/20 03:52:59;;;;;;;;;;;19.00;69.50;;;;;;4494934;31;20031;-78
2022/10/20 03:55:24;;;;;;;;;;;19.00;69.50;;;;;;4494692;31;20425;-78
2022/10/20 03:57:50;;;;;;;;;;;19.00;69.40;;;;;;4494559;31;19991;-78
2022/10/20 04:00:16;;;;;;;;;;;19.00;69.50;;;;;;4494624;31;19970;-78
2022/10/20 04:02:50;;;;;;;;;;;19.00;69.40;;;;;;4494582;31;19985;-78
2022/10/20 04:05:17;;;;;;;;;;;19.00;69.40;;;;;;4493907;31;20354;-78
2022/10/20 04:07:44;;;;;;;;;;;18.90;69.30;;;;;;4494380;31;20071;-79
2022/10/20 04:10:10;;;;;;;;;;;18.90;69.30;;;;;;4494477;31;20437;-78
2022/10/20 04:12:36;;;;;;;;;;;18.90;69.30;;;;;;4494651;31;19977;-78
2022/10/20 04:15:03;;;;;;;;;;;18.90;69.20;;;;;;4494280;31;19969;-78
2022/10/20 04:17:29;;;;;;;;;;;18.90;69.20;;;;;;4494438;31;20035;-78
2022/10/20 04:19:54;;;;;;;;;;;18.90;69.30;;;;;;4494433;31;20402;-78
2022/10/20 04:22:20;;;;;;;;;;;18.90;69.30;;;;;;4494492;31;19974;-78
2022/10/20 04:24:46;;;;;;;;;;;18.90;69.30;;;;;;4494212;31;19973;-77
2022/10/20 04:27:12;;;;;;;;;;;18.90;69.20;;;;;;4494469;31;19978;-78
2022/10/20 04:29:37;;;;;;;;;;;18.80;69.10;;;;;;4493161;31;19980;-78
2022/10/20 04:32:04;;;;;;;;;;;18.90;69.20;;;;;;4494064;31;19969;-78
2022/10/20 04:34:30;;;;;;;;;;;18.90;69.20;;;;;;4494214;31;20302;-78
2022/10/20 04:36:56;;;;;;;;;;;18.80;69.20;;;;;;4492851;31;19974;-78
2022/10/20 04:39:22;;;;;;;;;;;18.80;69.20;;;;;;4494207;31;19981;-78
2022/10/20 04:41:50;;;;;;;;;;;18.90;69.20;;;;;;4494071;31;19981;-78
2022/10/20 04:44:16;;;;;;;;;;;18.80;69.20;;;;;;4494241;31;20298;-78
2022/10/20 04:46:41;;;;;;;;;;;18.80;69.10;;;;;;4493547;31;20296;-78
2022/10/20 04:49:07;;;;;;;;;;;18.80;69.20;;;;;;4493547;31;20100;-78
2022/10/20 04:51:33;;;;;;;;;;;18.80;69.20;;;;;;4493951;31;19982;-78
2022/10/20 04:53:59;;;;;;;;;;;18.80;69.20;;;;;;4493585;31;20473;-78
2022/10/20 04:56:24;;;;;;;;;;;18.80;69.10;;;;;;4493699;31;19966;-78
2022/10/20 04:58:51;;;;;;;;;;;18.80;69.20;;;;;;4493576;31;20104;-78
2022/10/20 05:01:17;;;;;;;;;;;18.80;69.20;;;;;;4493569;31;20497;-78
2022/10/20 05:03:43;;;;;;;;;;;18.80;69.20;;;;;;4493561;31;19988;-78
2022/10/20 05:06:16;;;;;;;;;;;18.80;69.10;;;;;;4493184;31;20397;-78
2022/10/20 05:08:43;;;;;;;;;;;18.80;69.20;;;;;;4493318;31;19989;-78
2022/10/20 05:11:09;;;;;;;;;;;18.80;69.20;;;;;;4493603;31;20563;-78
2022/10/20 05:13:36;;;;;;;;;;;18.70;69.10;;;;;;4493425;31;19982;-78
2022/10/20 05:16:02;;;;;;;;;;;18.70;69.00;;;;;;4493141;31;20371;-78
2022/10/20 05:18:37;;;;;;;;;;;18.70;69.00;;;;;;4493145;31;20091;-78
2022/10/20 05:21:07;;;;;;;;;;;18.70;69.00;;;;;;4493775;31;19970;-78
2022/10/20 05:23:33;;;;;;;;;;;18.70;69.00;;;;;;4492046;31;19985;-78
2022/10/20 05:26:02;;;;;;;;;;;18.70;69.00;;;;;;4493195;31;20075;-78
2022/10/20 05:28:29;;;;;;;;;;;18.70;69.00;;;;;;4493142;31;20082;-78
2022/10/20 05:30:54;;;;;;;;;;;18.70;68.90;;;;;;4492987;31;19973;-78
2022/10/20 05:33:21;;;;;;;;;;;18.70;69.00;;;;;;4493231;31;20086;-78
2022/10/20 05:35:46;;;;;;;;;;;18.70;69.00;;;;;;4492989;31;20390;-78
2022/10/20 05:38:12;;;;;;;;;;;18.70;68.90;;;;;;4493007;31;20054;-78
2022/10/20 05:40:42;;;;;;;;;;;18.70;68.90;;;;;;4493261;31;19981;-78
2022/10/20 05:43:07;;;;;;;;;;;18.70;68.90;;;;;;4492750;31;20016;-78
2022/10/20 05:45:33;;;;;;;;;;;18.60;68.90;;;;;;4493050;31;19981;-78
2022/10/20 05:47:59;;;;;;;;;;;18.60;68.90;;;;;;4493017;31;20068;-78
2022/10/20 05:50:24;;;;;;;;;;;18.60;68.80;;;;;;4493222;31;19980;-78
2022/10/20 05:52:50;;;;;;;;;;;18.60;68.80;;;;;;4491835;31;19957;-78
2022/10/20 05:55:17;;;;;;;;;;;18.60;68.80;;;;;;4493232;31;19982;-77
2022/10/20 05:57:42;;;;;;;;;;;18.60;68.70;;;;;;4492895;31;20040;-78
2022/10/20 06:00:09;;;;;;;;;;;18.60;68.80;;;;;;4491585;31;19997;-77
2022/10/20 06:02:37;;;;;;;;;;;18.60;68.80;;;;;;4493098;31;19985;-77
2022/10/20 06:05:03;;;;;;;;;;;18.60;68.70;;;;;;4492814;31;20272;-78
2022/10/20 06:07:28;;;;;;;;;;;18.60;68.70;;;;;;4492911;31;20005;-78
2022/10/20 06:09:54;;;;;;;;;;;18.60;68.80;;;;;;4492522;31;20054;-77
2022/10/20 06:12:20;;;;;;;;;;;18.50;68.60;;;;;;4492798;32;19961;-77
2022/10/20 06:14:46;;;;;;;;;;;18.50;68.60;;;;;;4491384;32;20170;-78
2022/10/20 06:17:12;;;;;;;;;;;18.50;68.60;;;;;;4491562;32;20374;-78
2022/10/20 06:19:38;;;;;;;;;;;18.50;68.60;;;;;;4492837;32;19969;-78
2022/10/20 06:22:03;;;;;;;;;;;18.50;68.60;;;;;;4492790;32;20475;-77
2022/10/20 06:24:29;;;;;;;;;;;18.50;68.60;;;;;;4492679;32;20017;-78
2022/10/20 06:26:55;;;;;;;;;;;18.50;68.60;;;;;;4491709;32;19992;-77
2022/10/20 06:29:21;;;;;;;;;;;18.50;68.60;;;;;;4495100;31;20489;-78
2022/10/20 06:31:47;;;;;;;;;;;18.50;68.50;;;;;;4495794;31;19966;-78
2022/10/20 06:34:20;;;;;;;;;;;18.50;68.60;;;;;;4495417;31;20100;-77
2022/10/20 06:36:46;;;;;;;;;;;18.50;68.50;;;;;;4495707;31;20424;-78
2022/10/20 06:39:13;;;;;;;;;;;18.50;68.60;;;;;;4494870;31;20047;-78
2022/10/20 06:41:40;;;;;;;;;;;18.50;68.60;;;;;;4496016;31;20488;-77
2022/10/20 06:44:06;;;;;;;;;;;18.50;68.50;;;;;;4495680;31;20395;-79
2022/10/20 06:46:35;;;;;;;;;;;18.50;68.60;;;;;;4495882;31;19977;-77
2022/10/20 06:49:02;;;;;;;;;;;18.50;68.60;;;;;;4495654;31;20024;-77
2022/10/20 06:51:28;;;;;;;;;;;18.40;68.50;;;;;;4494474;31;20115;-77
2022/10/20 06:53:54;;;;;;;;;;;18.40;68.50;;;;;;4494456;31;20158;-79
2022/10/20 06:56:21;;;;;;;;;;;18.40;68.50;;;;;;4495750;31;19978;-79
2022/10/20 06:58:48;;;;;;;;;;;18.40;68.60;;;;;;4495434;31;20399;-79
2022/10/20 07:01:15;;;;;;;;;;;18.40;68.50;;;;;;4495451;31;20035;-77
2022/10/20 07:03:41;;;;;;;;;;;18.40;68.50;;;;;;4495725;31;19995;-78
2022/10/20 07:06:09;;;;;;;;;;;18.40;68.50;;;;;;4495515;31;20314;-77
2022/10/20 07:08:35;;;;;;;;;;;18.40;68.50;;;;;;4495175;31;19982;-77
2022/10/20 07:11:02;;;;;;;;;;;18.40;68.50;;;;;;4495322;31;19974;-77
2022/10/20 07:13:29;;;;;;;;;;;18.40;68.50;;;;;;4495159;31;19977;-78
2022/10/20 07:15:56;;;;;;;;;;;18.40;68.00;;;;;;4495244;31;19985;-76
2022/10/20 07:18:22;;;;;;;;;;;18.30;67.80;;;;;;4495145;31;20127;-77
2022/10/20 07:20:48;;;;;;;;;;;18.30;67.90;;;;;;4495124;31;20107;-77
2022/10/20 07:23:14;;;;;;;;;;;18.30;67.90;;;;;;4495086;31;19980;-80
2022/10/20 07:25:39;;;;;;;;;;;18.30;68.20;;;;;;4494876;31;19970;-77
2022/10/20 07:28:05;;;;;;;;;;;18.30;68.40;;;;;;4494148;31;20092;-73
2022/10/20 07:30:31;;;;;;;;;;;18.30;68.60;;;;;;4495124;31;20095;-75
2022/10/20 07:32:57;;;;;;;;;;;18.30;68.50;;;;;;4494696;31;20302;-75
2022/10/20 07:35:23;;;;;;;;;;;18.30;68.50;;;;;;4493782;31;19970;-79
2022/10/20 07:37:49;;;;;;;;;;;18.30;68.50;;;;;;4494794;31;20005;-79
2022/10/20 07:40:15;;;;;;;;;;;18.30;68.60;;;;;;4494068;31;19983;-77
2022/10/20 07:42:41;;;;;;;;;;;18.30;68.60;;;;;;4494965;31;20391;-78
2022/10/20 07:45:07;;;;;;;;;;;18.30;68.80;;;;;;4494841;31;19973;-79
2022/10/20 07:47:33;;;;;;;;;;;18.30;68.80;;;;;;4494969;31;19970;-80
2022/10/20 07:49:58;;;;;;;;;;;18.30;68.80;;;;;;4495044;31;20560;-80
2022/10/20 07:52:24;;;;;;;;;;;18.30;68.80;;;;;;4494654;31;20373;-78
2022/10/20 07:54:50;;;;;;;;;;;18.30;68.90;;;;;;4494931;31;20500;-78
2022/10/20 07:57:16;;;;;;;;;;;18.30;68.80;;;;;;4494600;31;20108;-77
2022/10/20 07:59:42;;;;;;;;;;;18.30;68.80;;;;;;4494552;31;20023;-81
2022/10/20 08:02:09;;;;;;;;;;;18.30;68.80;;;;;;4493579;31;19969;-78
2022/10/20 08:04:35;;;;;;;;;;;18.30;68.80;;;;;;4494290;31;20419;-80
2022/10/20 08:07:00;;;;;;;;;;;18.30;68.80;;;;;;4494097;31;19974;-79
2022/10/20 08:09:27;;;;;;;;;;;18.30;68.90;;;;;;4492850;31;19977;-80
2022/10/20 08:11:53;;;;;;;;;;;18.30;68.80;;;;;;4494307;31;19987;-79
2022/10/20 08:14:18;;;;;;;;;;;18.30;68.80;;;;;;4494074;31;19977;-81
2022/10/20 08:16:45;;;;;;;;;;;18.30;68.60;;;;;;4494399;31;19985;-79
2022/10/20 08:19:10;;;;;;;;;;;18.30;68.70;;;;;;4494256;31;20292;-79
2022/10/20 08:21:36;;;;;;;;;;;18.30;68.80;;;;;;4494124;31;19962;-79
2022/10/20 08:24:02;;;;;;;;;;;18.30;68.80;;;;;;4493849;31;20112;-79
2022/10/20 08:26:28;;;;;;;;;;;18.30;69.00;;;;;;4494448;31;20027;-81
2022/10/20 08:28:54;;;;;;;;;;;18.30;69.30;;;;;;4494070;31;20403;-79
2022/10/20 08:31:21;;;;;;;;;;;18.40;69.40;;;;;;4494226;31;19985;-80
2022/10/20 08:33:46;;;;;;;;;;;18.40;69.30;;;;;;4493743;31;19984;-80
2022/10/20 08:36:13;;;;;;;;;;;18.50;69.20;;;;;;4492441;31;19969;-80
2022/10/20 08:38:40;;;;;;;;;;;18.60;69.10;;;;;;4492798;31;20559;-80
2022/10/20 08:41:20;;;;;;;;;;;18.70;68.90;;;;;;4493857;31;19990;-80
2022/10/20 08:43:46;;;;;;;;;;;18.80;68.60;;;;;;4493776;31;20499;-81
2022/10/20 08:46:16;;;;;;;;;;;19.00;68.30;;;;;;4492793;31;20096;-81
2022/10/20 08:48:43;;;;;;;;;;;19.10;68.00;;;;;;4493410;31;19970;-81
2022/10/20 08:51:14;;;;;;;;;;;19.20;67.70;;;;;;4492381;31;20400;-76
2022/10/20 08:53:40;;;;;;;;;;;19.30;67.40;;;;;;4493869;31;20425;-85
2022/10/20 08:56:09;;;;;;;;;;;19.40;67.10;;;;;;4493865;31;19980;-86
2022/10/20 08:58:35;;;;;;;;;;;19.50;66.80;;;;;;4493507;31;19985;-82
2022/10/20 09:01:04;;;;;;;;;;;19.60;66.60;;;;;;4493754;31;20294;-83
2022/10/20 09:03:31;;;;;;;;;;;19.70;66.40;;;;;;4493233;31;19985;-81
2022/10/20 09:06:06;;;;;;;;;;;19.80;66.10;;;;;;4493639;31;19977;-79
2022/10/20 09:08:33;;;;;;;;;;;19.90;66.00;;;;;;4493251;31;19981;-83
2022/10/20 09:11:01;;;;;;;;;;;20.00;65.80;;;;;;4492140;31;20458;-81
2022/10/20 09:13:29;;;;;;;;;;;20.10;65.70;;;;;;4493091;31;19992;-80
2022/10/20 09:16:02;;;;;;;;;;;20.10;65.50;;;;;;4492013;31;20021;-80
2022/10/20 09:18:33;;;;;;;;;;;20.20;65.30;;;;;;4493586;31;20016;-79
2022/10/20 09:21:02;;;;;;;;;;;20.20;65.30;;;;;;4493196;31;20600;-81
2022/10/20 09:23:39;;;;;;;;;;;20.20;65.20;;;;;;4492031;31;20021;-78
2022/10/20 09:26:14;;;;;;;;;;;20.30;65.10;;;;;;4493423;31;19977;-80
2022/10/20 09:28:40;;;;;;;;;;;20.40;65.10;;;;;;4492888;31;20032;-82
2022/10/20 09:31:19;;;;;;;;;;;20.40;65.00;;;;;;4491947;31;19978;-79
2022/10/20 09:33:46;;;;;;;;;;;20.40;65.00;;;;;;4493257;31;20284;-81
2022/10/20 09:36:16;;;;;;;;;;;20.40;65.00;;;;;;4493034;31;20078;-83
2022/10/20 09:38:43;;;;;;;;;;;20.40;65.00;;;;;;4491598;31;19996;-80
2022/10/20 09:41:15;;;;;;;;;;;20.50;65.00;;;;;;4493194;31;20489;-81
2022/10/20 09:43:52;;;;;;;;;;;20.50;65.00;;;;;;4492944;31;19977;-83
2022/10/20 09:46:23;;;;;;;;;;;20.50;64.80;;;;;;4492829;31;20001;-82
2022/10/20 09:48:55;;;;;;;;;;;20.60;64.80;;;;;;4492996;31;20038;-82
2022/10/20 09:51:23;;;;;;;;;;;20.60;64.70;;;;;;4493353;31;19973;-83
2022/10/20 09:54:03;;;;;;;;;;;20.70;64.60;;;;;;4492901;31;19973;-85
2022/10/20 09:56:34;;;;;;;;;;;20.70;64.60;;;;;;4492725;31;20023;-86
2022/10/20 09:59:01;;;;;;;;;;;20.70;64.50;;;;;;4492885;31;20489;-84
2022/10/20 10:01:27;;;;;;;;;;;20.70;64.40;;;;;;4493138;31;20102;-83
2022/10/20 10:03:58;;;;;;;;;;;20.70;64.20;;;;;;4492373;31;20420;-81
2022/10/20 10:06:29;;;;;;;;;;;20.80;64.20;;;;;;4492715;31;19973;-79
2022/10/20 10:08:56;;;;;;;;;;;20.80;64.20;;;;;;4492393;31;19992;-80
2022/10/20 10:11:25;;;;;;;;;;;20.80;64.10;;;;;;4492420;31;20428;-82
2022/10/20 10:13:51;;;;;;;;;;;20.80;64.00;;;;;;4491537;32;19989;-82
2022/10/20 10:16:23;;;;;;;;;;;20.80;64.10;;;;;;4492750;32;20050;-82
2022/10/20 10:18:54;;;;;;;;;;;20.80;64.10;;;;;;4493018;32;20087;-81
2022/10/20 10:21:20;;;;;;;;;;;20.70;64.20;;;;;;4492568;32;20352;-84
2022/10/20 10:23:51;;;;;;;;;;;20.70;64.30;;;;;;4492224;32;20012;-83
2022/10/20 10:26:31;;;;;;;;;;;20.60;64.40;;;;;;4492817;32;19988;-84
2022/10/20 10:29:00;;;;;;;;;;;20.60;64.60;;;;;;4493237;32;20025;-82
2022/10/20 10:31:31;;;;;;;;;;;20.50;64.80;;;;;;4493112;32;19969;-83
2022/10/20 10:34:20;;;;;;;;;;;20.40;65.00;;;;;;4492932;32;19977;-82
2022/10/20 10:36:49;;;;;;;;;;;20.30;65.20;;;;;;4489153;32;20433;-81
2022/10/20 10:39:15;;;;;;;;;;;20.20;65.40;;;;;;4492539;32;20386;-82
2022/10/20 10:42:00;;;;;;;;;;;20.20;65.60;;;;;;4492191;32;19988;-82
2022/10/20 10:44:26;;;;;;;;;;;20.10;65.70;;;;;;4492405;32;19988;-84
2022/10/20 10:47:10;;;;;;;;;;;20.10;66.00;;;;;;4492275;32;19978;-81
2022/10/20 10:49:40;;;;;;;;;;;20.10;66.10;;;;;;4492538;32;20092;-79
2022/10/20 10:52:12;;;;;;;;;;;20.00;66.10;;;;;;4492703;32;19992;-78
2022/10/20 10:54:58;;;;;;;;;;;20.00;66.20;;;;;;4492276;32;20106;-86
2022/10/20 10:57:45;;;;;;;;;;;19.90;66.20;;;;;;4492109;32;20131;-81
2022/10/20 11:00:18;;;;;;;;;;;19.90;66.10;;;;;;4491079;32;19989;-79
2022/10/20 11:02:55;;;;;;;;;;;19.90;66.20;;;;;;4491658;32;19981;-76
2022/10/20 11:05:38;;;;;;;;;;;19.80;66.20;;;;;;4492233;32;19988;-77
2022/10/20 11:08:14;;;;;;;;;;;19.80;66.50;;;;;;4492345;32;19970;-77
2022/10/20 11:10:41;;;;;;;;;;;19.80;66.50;;;;;;4491936;32;19977;-76
2022/10/20 11:13:16;;;;;;;;;;;19.80;66.40;;;;;;4492217;32;19962;-76
2022/10/20 11:16:00;;;;;;;;;;;19.90;66.40;;;;;;4495149;31;19981;-76
2022/10/20 11:18:45;;;;;;;;;;;19.80;66.30;;;;;;4494919;31;19988;-75
2022/10/20 11:21:18;;;;;;;;;;;19.80;66.40;;;;;;4495215;31;19993;-76
2022/10/20 11:24:03;;;;;;;;;;;19.90;66.40;;;;;;4494942;31;19981;-76
2022/10/20 11:26:35;;;;;;;;;;;19.80;66.40;;;;;;4495366;31;19985;-77
2022/10/20 11:29:09;;;;;;;;;;;19.80;66.50;;;;;;4494967;31;20454;-77
2022/10/20 11:31:53;;;;;;;;;;;19.80;66.50;;;;;;4493950;31;20128;-79
2022/10/20 11:34:33;;;;;;;;;;;19.80;66.60;;;;;;4495000;31;20373;-79
2022/10/20 11:37:04;;;;;;;;;;;19.80;66.60;;;;;;4493365;31;20051;-79
2022/10/20 11:39:33;;;;;;;;;;;19.80;66.70;;;;;;4495127;31;20139;-78
2022/10/20 11:42:02;;;;;;;;;;;19.80;66.70;;;;;;4494507;31;20014;-77
2022/10/20 11:44:49;;;;;;;;;;;19.80;66.70;;;;;;4494411;31;20101;-79
2022/10/20 11:47:45;;;;;;;;;;;19.80;66.90;;;;;;4493606;31;19981;-79
2022/10/20 11:50:11;;;;;;;;;;;19.80;66.90;;;;;;4487580;31;19990;-77
2022/10/20 11:52:47;;;;;;;;;;;19.80;67.00;;;;;;4494654;31;19973;-79
2022/10/20 11:55:22;;;;;;;;;;;19.80;67.00;;;;;;4494974;31;20504;-79
2022/10/20 11:57:51;;;;;;;;;;;19.80;66.90;;;;;;4494595;31;20374;-80
2022/10/20 12:00:35;;;;;;;;;;;19.80;67.00;;;;;;4494804;31;20058;-80
2022/10/20 12:03:21;;;;;;;;;;;19.70;66.90;;;;;;4493191;31;19989;-79
2022/10/20 12:05:53;;;;;;;;;;;19.70;67.10;;;;;;4494579;31;19985;-79
2022/10/20 12:08:22;;;;;;;;;;;19.70;67.10;;;;;;4493059;31;19986;-79
2022/10/20 12:10:58;;;;;;;;;;;19.70;67.10;;;;;;4494750;31;19981;-80
2022/10/20 12:13:27;;;;;;;;;;;19.70;67.10;;;;;;4493660;31;20377;-77
2022/10/20 12:15:53;;;;;;;;;;;19.80;67.10;;;;;;4494271;31;19969;-77
2022/10/20 12:18:24;;;;;;;;;;;19.80;67.10;;;;;;4480295;31;20299;-78
2022/10/20 12:20:58;;;;;;;;;;;19.70;67.10;;;;;;4494367;31;19977;-76
2022/10/20 12:23:51;;;;;;;;;;;19.80;67.20;;;;;;4493265;31;20539;-77
2022/10/20 12:26:33;;;;;;;;;;;19.80;67.20;;;;;;4494079;31;20418;-77
2022/10/20 12:29:21;;;;;;;;;;;19.80;67.20;;;;;;4494360;31;20409;-76
2022/10/20 12:32:06;;;;;;;;;;;19.70;66.90;;;;;;4493913;31;20006;-79
2022/10/20 12:34:39;;;;;;;;;;;19.70;67.00;;;;;;4494243;31;20111;-78
2022/10/20 12:37:27;;;;;;;;;;;19.70;66.80;;;;;;4493806;31;19989;-78
2022/10/20 12:40:17;;;;;;;;;;;19.70;66.90;;;;;;4494186;31;19978;-79
2022/10/20 12:42:45;;;;;;;;;;;19.70;66.70;;;;;;4494374;31;19988;-83
2022/10/20 12:45:17;;;;;;;;;;;19.60;66.90;;;;;;4494113;31;19981;-80
2022/10/20 12:48:03;;;;;;;;;;;19.60;66.90;;;;;;4481549;31;19974;-79
2022/10/20 12:50:38;;;;;;;;;;;19.60;67.10;;;;;;4493987;31;19993;-80
2022/10/20 12:53:10;;;;;;;;;;;19.60;67.00;;;;;;4494252;31;20021;-79
2022/10/20 12:55:39;;;;;;;;;;;19.70;67.00;;;;;;4493945;31;20028;-81
2022/10/20 12:58:21;;;;;;;;;;;19.70;66.80;;;;;;4494049;31;19977;-79
2022/10/20 13:00:57;;;;;;;;;;;19.80;66.70;;;;;;4493299;31;19977;-79
2022/10/20 13:03:45;;;;;;;;;;;19.90;66.40;;;;;;4492936;31;19973;-78
2022/10/20 13:06:25;;;;;;;;;;;20.00;66.10;;;;;;4493727;31;19978;-78
2022/10/20 13:09:18;;;;;;;;;;;20.20;65.90;;;;;;4492564;31;20406;-79
2022/10/20 13:12:04;;;;;;;;;;;20.30;65.60;;;;;;4492511;31;20437;-77
2022/10/20 13:14:53;;;;;;;;;;;20.40;65.30;;;;;;4492657;31;20404;-78
2022/10/20 13:17:47;;;;;;;;;;;20.50;65.00;;;;;;4492529;31;19981;-79
2022/10/20 13:20:54;;;;;;;;;;;20.60;64.80;;;;;;4492468;31;20108;-79
2022/10/20 13:23:52;;;;;;;;;;;20.70;64.60;;;;;;4492388;31;20059;-80
2022/10/20 13:26:41;;;;;;;;;;;20.80;64.40;;;;;;4491994;31;19984;-79
2022/10/20 13:29:32;;;;;;;;;;;20.90;64.30;;;;;;4492350;31;20422;-78
2022/10/20 13:32:21;;;;;;;;;;;20.90;64.20;;;;;;4492230;31;20025;-79
2022/10/20 13:35:17;;;;;;;;;;;21.00;64.10;;;;;;4492010;31;19981;-79
2022/10/20 13:38:26;;;;;;;;;;;21.00;64.00;;;;;;4491547;31;19989;-75
2022/10/20 13:41:21;;;;;;;;;;;21.00;64.00;;;;;;4473863;31;20119;-77
2022/10/20 13:44:25;;;;;;;;;;;21.10;64.00;;;;;;4492118;31;19973;-80
2022/10/20 13:47:17;;;;;;;;;;;21.10;63.90;;;;;;4492254;31;19993;-78
2022/10/20 13:50:09;;;;;;;;;;;21.10;63.90;;;;;;4492024;31;20005;-77
2022/10/20 13:52:58;;;;;;;;;;;21.20;63.90;;;;;;4492177;31;19973;-77
2022/10/20 13:56:07;;;;;;;;;;;21.20;63.80;;;;;;4492256;31;20375;-78
2022/10/20 13:59:17;;;;;;;;;;;21.20;63.80;;;;;;4491894;31;20480;-75
2022/10/20 14:02:22;;;;;;;;;;;21.20;63.80;;;;;;4491929;31;19985;-75
2022/10/20 14:05:12;;;;;;;;;;;21.20;63.80;;;;;;4491656;31;19973;-76
2022/10/20 14:07:59;;;;;;;;;;;21.20;63.80;;;;;;4491969;31;20379;-78
2022/10/20 14:10:56;;;;;;;;;;;21.30;63.80;;;;;;4491585;31;19973;-76
2022/10/20 14:13:42;;;;;;;;;;;21.30;63.70;;;;;;4492031;31;19982;-75
2022/10/20 14:16:28;;;;;;;;;;;21.30;63.70;;;;;;4491889;32;20378;-77
2022/10/20 14:19:14;;;;;;;;;;;21.30;63.70;;;;;;4491864;32;20292;-76
2022/10/20 14:22:12;;;;;;;;;;;21.40;63.60;;;;;;4492098;32;19988;-77
2022/10/20 14:24:58;;;;;;;;;;;21.40;63.60;;;;;;4491787;32;20375;-79
2022/10/20 14:27:46;;;;;;;;;;;21.40;63.60;;;;;;4491920;32;19988;-78
2022/10/20 14:30:32;;;;;;;;;;;21.40;63.50;;;;;;4491779;32;20391;-77
2022/10/20 14:33:18;;;;;;;;;;;21.50;63.60;;;;;;4491786;32;19973;-77
2022/10/20 14:36:05;;;;;;;;;;;21.50;63.50;;;;;;4491819;32;20040;-76
2022/10/20 14:38:52;;;;;;;;;;;21.40;63.40;;;;;;4491774;32;20029;-75
2022/10/20 14:41:38;;;;;;;;;;;21.40;63.40;;;;;;4490426;32;19993;-78